sensor_id;sensor_type;location;lat;lon;timestamp;pressure;altitude;pressure_sealevel;temperature;humidity
70411;BME280;57832;46.038;11.398;2023-04-23T00:01:27;96561.09;;;15.99;100.00
70411;BME280;57832;46.038;11.398;2023-04-23T00:03:57;96560.84;;;15.77;100.00
70411;BME280;57832;46.038;11.398;2023-04-23T00:06:24;96558.47;;;15.56;100.00
70411;BME280;57832;46.038;11.398;2023-04-23T00:08:53;96558.22;;;15.52;100.00
70411;BME280;57832;46.038;11.398;2023-04-23T00:11:19;96550.66;;;15.46;100.00
70411;BME280;57832;46.038;11.398;2023-04-23T00:13:46;96547.16;;;15.50;100.00
70411;BME280;57832;46.038;11.398;2023-04-23T00:16:13;96551.13;;;15.72;100.00
70411;BME280;57832;46.038;11.398;2023-04-23T00:18:40;96545.78;;;15.77;100.00
70411;BME280;57832;46.038;11.398;2023-04-23T00:21:05;96540.47;;;15.77;100.00
70411;BME280;57832;46.038;11.398;2023-04-23T00:23:32;96546.31;;;15.98;100.00
70411;BME280;57832;46.038;11.398;2023-04-23T00:25:58;96546.63;;;15.72;100.00
70411;BME280;57832;46.038;11.398;2023-04-23T00:28:23;96542.03;;;16.02;100.00
70411;BME280;57832;46.038;11.398;2023-04-23T00:30:49;96541.22;;;15.83;100.00
70411;BME280;57832;46.038;11.398;2023-04-23T00:33:15;96541.41;;;15.67;100.00
70411;BME280;57832;46.038;11.398;2023-04-23T00:35:40;96540.03;;;15.70;100.00
70411;BME280;57832;46.038;11.398;2023-04-23T00:38:06;96544.69;;;15.35;100.00
70411;BME280;57832;46.038;11.398;2023-04-23T00:40:31;96542.50;;;15.18;100.00
70411;BME280;57832;46.038;11.398;2023-04-23T00:42:57;96544.03;;;15.24;100.00
70411;BME280;57832;46.038;11.398;2023-04-23T00:45:22;96541.47;;;15.62;100.00
70411;BME280;57832;46.038;11.398;2023-04-23T00:47:48;96550.53;;;15.56;100.00
70411;BME280;57832;46.038;11.398;2023-04-23T00:50:14;96548.84;;;15.65;100.00
70411;BME280;57832;46.038;11.398;2023-04-23T00:52:40;96543.59;;;15.60;100.00
70411;BME280;57832;46.038;11.398;2023-04-23T00:55:06;96545.75;;;15.58;100.00
70411;BME280;57832;46.038;11.398;2023-04-23T00:57:33;96545.25;;;15.56;100.00
70411;BME280;57832;46.038;11.398;2023-04-23T00:59:59;96542.59;;;15.56;100.00
70411;BME280;57832;46.038;11.398;2023-04-23T01:02:26;96550.16;;;15.19;100.00
70411;BME280;57832;46.038;11.398;2023-04-23T01:04:54;96547.81;;;14.88;100.00
70411;BME280;57832;46.038;11.398;2023-04-23T01:07:20;96546.38;;;15.01;100.00
70411;BME280;57832;46.038;11.398;2023-04-23T01:09:49;96543.06;;;15.39;100.00
70411;BME280;57832;46.038;11.398;2023-04-23T01:12:15;96548.16;;;15.35;100.00
70411;BME280;57832;46.038;11.398;2023-04-23T01:14:42;96543.69;;;15.31;100.00
70411;BME280;57832;46.038;11.398;2023-04-23T01:17:08;96537.00;;;15.38;100.00
70411;BME280;57832;46.038;11.398;2023-04-23T01:19:34;96531.63;;;15.68;100.00
70411;BME280;57832;46.038;11.398;2023-04-23T01:22:01;96529.31;;;15.42;100.00
70411;BME280;57832;46.038;11.398;2023-04-23T01:24:28;96532.66;;;15.91;100.00
70411;BME280;57832;46.038;11.398;2023-04-23T01:26:54;96531.94;;;16.04;100.00
70411;BME280;57832;46.038;11.398;2023-04-23T01:29:20;96533.59;;;15.81;100.00
70411;BME280;57832;46.038;11.398;2023-04-23T01:31:46;96538.38;;;15.55;100.00
70411;BME280;57832;46.038;11.398;2023-04-23T01:34:13;96534.91;;;15.60;100.00
70411;BME280;57832;46.038;11.398;2023-04-23T01:36:39;96540.56;;;15.72;100.00
70411;BME280;57832;46.038;11.398;2023-04-23T01:39:06;96543.25;;;16.10;100.00
70411;BME280;57832;46.038;11.398;2023-04-23T01:41:32;96541.47;;;15.62;100.00
70411;BME280;57832;46.038;11.398;2023-04-23T01:43:58;96543.91;;;15.34;100.00
70411;BME280;57832;46.038;11.398;2023-04-23T01:46:24;96545.91;;;15.24;100.00
70411;BME280;57832;46.038;11.398;2023-04-23T01:48:50;96541.94;;;15.88;100.00
70411;BME280;57832;46.038;11.398;2023-04-23T01:51:16;96556.13;;;15.74;100.00
70411;BME280;57832;46.038;11.398;2023-04-23T01:53:41;96550.59;;;15.94;100.00
70411;BME280;57832;46.038;11.398;2023-04-23T01:56:07;96544.94;;;16.20;100.00
70411;BME280;57832;46.038;11.398;2023-04-23T01:58:34;96548.31;;;15.87;100.00
70411;BME280;57832;46.038;11.398;2023-04-23T02:00:59;96548.44;;;16.34;100.00
70411;BME280;57832;46.038;11.398;2023-04-23T02:03:25;96554.91;;;15.90;100.00
70411;BME280;57832;46.038;11.398;2023-04-23T02:05:51;96542.69;;;15.02;100.00
70411;BME280;57832;46.038;11.398;2023-04-23T02:08:18;96525.59;;;15.19;100.00
70411;BME280;57832;46.038;11.398;2023-04-23T02:10:44;96526.22;;;15.54;100.00
70411;BME280;57832;46.038;11.398;2023-04-23T02:13:09;96528.81;;;15.59;100.00
70411;BME280;57832;46.038;11.398;2023-04-23T02:15:35;96529.13;;;15.33;100.00
70411;BME280;57832;46.038;11.398;2023-04-23T02:18:02;96513.94;;;15.63;100.00
70411;BME280;57832;46.038;11.398;2023-04-23T02:20:28;96517.16;;;16.36;100.00
70411;BME280;57832;46.038;11.398;2023-04-23T02:22:54;96514.44;;;16.42;100.00
70411;BME280;57832;46.038;11.398;2023-04-23T02:25:20;96516.69;;;16.48;100.00
70411;BME280;57832;46.038;11.398;2023-04-23T02:27:47;96509.66;;;16.44;100.00
70411;BME280;57832;46.038;11.398;2023-04-23T02:30:13;96512.00;;;16.45;100.00
70411;BME280;57832;46.038;11.398;2023-04-23T02:32:39;96523.66;;;15.92;100.00
70411;BME280;57832;46.038;11.398;2023-04-23T02:35:04;96515.31;;;15.61;100.00
70411;BME280;57832;46.038;11.398;2023-04-23T02:37:34;96515.50;;;15.26;100.00
70411;BME280;57832;46.038;11.398;2023-04-23T02:40:00;96505.59;;;15.56;100.00
70411;BME280;57832;46.038;11.398;2023-04-23T02:42:26;96508.25;;;15.75;100.00
70411;BME280;57832;46.038;11.398;2023-04-23T02:44:51;96504.53;;;15.57;100.00
70411;BME280;57832;46.038;11.398;2023-04-23T02:47:17;96514.53;;;15.79;100.00
70411;BME280;57832;46.038;11.398;2023-04-23T02:49:42;96523.63;;;15.73;100.00
70411;BME280;57832;46.038;11.398;2023-04-23T02:52:08;96528.19;;;15.24;100.00
70411;BME280;57832;46.038;11.398;2023-04-23T02:54:34;96520.44;;;15.33;100.00
70411;BME280;57832;46.038;11.398;2023-04-23T02:57:02;96520.16;;;15.10;100.00
70411;BME280;57832;46.038;11.398;2023-04-23T02:59:27;96517.34;;;15.45;100.00
70411;BME280;57832;46.038;11.398;2023-04-23T03:01:53;96517.03;;;15.51;100.00
70411;BME280;57832;46.038;11.398;2023-04-23T03:04:19;96519.31;;;15.15;100.00
70411;BME280;57832;46.038;11.398;2023-04-23T03:06:45;96514.34;;;14.84;100.00
70411;BME280;57832;46.038;11.398;2023-04-23T03:09:10;96516.28;;;15.89;100.00
70411;BME280;57832;46.038;11.398;2023-04-23T03:11:37;96514.41;;;15.70;100.00
70411;BME280;57832;46.038;11.398;2023-04-23T03:14:02;96513.44;;;15.85;100.00
70411;BME280;57832;46.038;11.398;2023-04-23T03:16:29;96517.88;;;15.47;100.00
70411;BME280;57832;46.038;11.398;2023-04-23T03:18:56;96512.13;;;15.83;100.00
70411;BME280;57832;46.038;11.398;2023-04-23T03:21:21;96510.41;;;15.73;100.00
70411;BME280;57832;46.038;11.398;2023-04-23T03:23:47;96507.69;;;15.78;100.00
70411;BME280;57832;46.038;11.398;2023-04-23T03:26:12;96501.66;;;15.53;100.00
70411;BME280;57832;46.038;11.398;2023-04-23T03:28:38;96501.88;;;15.14;100.00
70411;BME280;57832;46.038;11.398;2023-04-23T03:31:03;96501.53;;;14.96;100.00
70411;BME280;57832;46.038;11.398;2023-04-23T03:33:29;96499.44;;;15.42;100.00
70411;BME280;57832;46.038;11.398;2023-04-23T03:35:54;96504.53;;;15.57;100.00
70411;BME280;57832;46.038;11.398;2023-04-23T03:38:20;96501.63;;;14.86;100.00
70411;BME280;57832;46.038;11.398;2023-04-23T03:40:45;96500.03;;;14.90;100.00
70411;BME280;57832;46.038;11.398;2023-04-23T03:43:11;96505.47;;;15.23;100.00
70411;BME280;57832;46.038;11.398;2023-04-23T03:45:36;96503.66;;;15.43;100.00
70411;BME280;57832;46.038;11.398;2023-04-23T03:48:02;96505.09;;;15.54;100.00
70411;BME280;57832;46.038;11.398;2023-04-23T03:50:27;96509.13;;;15.70;100.00
70411;BME280;57832;46.038;11.398;2023-04-23T03:52:53;96517.09;;;15.46;100.00
70411;BME280;57832;46.038;11.398;2023-04-23T03:55:19;96514.53;;;15.60;100.00
70411;BME280;57832;46.038;11.398;2023-04-23T03:57:45;96512.69;;;15.80;100.00
70411;BME280;57832;46.038;11.398;2023-04-23T04:00:11;96507.53;;;15.50;100.00
70411;BME280;57832;46.038;11.398;2023-04-23T04:02:37;96511.88;;;15.60;100.00
70411;BME280;57832;46.038;11.398;2023-04-23T04:05:06;96514.34;;;15.08;100.00
70411;BME280;57832;46.038;11.398;2023-04-23T04:07:32;96519.75;;;15.22;100.00
70411;BME280;57832;46.038;11.398;2023-04-23T04:09:58;96515.09;;;15.57;100.00
70411;BME280;57832;46.038;11.398;2023-04-23T04:12:24;96519.31;;;15.15;100.00
70411;BME280;57832;46.038;11.398;2023-04-23T04:14:50;96525.34;;;15.15;100.00
70411;BME280;57832;46.038;11.398;2023-04-23T04:17:15;96530.19;;;15.76;100.00
70411;BME280;57832;46.038;11.398;2023-04-23T04:19:41;96519.97;;;15.26;100.00
70411;BME280;57832;46.038;11.398;2023-04-23T04:22:08;96522.50;;;15.36;100.00
70411;BME280;57832;46.038;11.398;2023-04-23T04:24:33;96530.31;;;15.65;100.00
70411;BME280;57832;46.038;11.398;2023-04-23T04:27:00;96528.53;;;15.61;100.00
70411;BME280;57832;46.038;11.398;2023-04-23T04:29:26;96523.97;;;15.66;100.00
70411;BME280;57832;46.038;11.398;2023-04-23T04:31:53;96530.38;;;15.60;100.00
70411;BME280;57832;46.038;11.398;2023-04-23T04:34:18;96528.34;;;15.33;100.00
70411;BME280;57832;46.038;11.398;2023-04-23T04:36:44;96525.81;;;14.74;100.00
70411;BME280;57832;46.038;11.398;2023-04-23T04:39:11;96524.56;;;14.61;100.00
70411;BME280;57832;46.038;11.398;2023-04-23T04:41:37;96528.53;;;14.59;100.00
70411;BME280;57832;46.038;11.398;2023-04-23T04:44:03;96526.22;;;14.86;100.00
70411;BME280;57832;46.038;11.398;2023-04-23T04:46:29;96526.59;;;15.23;100.00
70411;BME280;57832;46.038;11.398;2023-04-23T04:48:55;96529.66;;;15.35;100.00
70411;BME280;57832;46.038;11.398;2023-04-23T04:51:21;96529.38;;;15.56;100.00
70411;BME280;57832;46.038;11.398;2023-04-23T04:53:47;96533.16;;;15.50;100.00
70411;BME280;57832;46.038;11.398;2023-04-23T04:56:12;96534.34;;;15.38;100.00
70411;BME280;57832;46.038;11.398;2023-04-23T04:58:38;96533.97;;;15.50;100.00
70411;BME280;57832;46.038;11.398;2023-04-23T05:01:04;96537.44;;;15.89;100.00
70411;BME280;57832;46.038;11.398;2023-04-23T05:03:29;96532.41;;;16.26;100.00
70411;BME280;57832;46.038;11.398;2023-04-23T05:05:55;96534.03;;;16.08;100.00
70411;BME280;57832;46.038;11.398;2023-04-23T05:08:23;96540.38;;;15.87;100.00
70411;BME280;57832;46.038;11.398;2023-04-23T05:10:48;96537.72;;;16.07;100.00
70411;BME280;57832;46.038;11.398;2023-04-23T05:13:18;96540.44;;;16.01;100.00
70411;BME280;57832;46.038;11.398;2023-04-23T05:15:46;96537.56;;;15.79;100.00
70411;BME280;57832;46.038;11.398;2023-04-23T05:18:12;96542.53;;;15.61;100.00
70411;BME280;57832;46.038;11.398;2023-04-23T05:20:37;96543.25;;;15.48;100.00
70411;BME280;57832;46.038;11.398;2023-04-23T05:23:03;96542.44;;;15.23;100.00
70411;BME280;57832;46.038;11.398;2023-04-23T05:25:29;96545.66;;;15.20;100.00
70411;BME280;57832;46.038;11.398;2023-04-23T05:27:55;96543.63;;;15.36;100.00
70411;BME280;57832;46.038;11.398;2023-04-23T05:30:21;96549.28;;;15.48;100.00
70411;BME280;57832;46.038;11.398;2023-04-23T05:32:47;96552.88;;;15.58;100.00
70411;BME280;57832;46.038;11.398;2023-04-23T05:35:12;96549.56;;;16.28;100.00
70411;BME280;57832;46.038;11.398;2023-04-23T05:37:38;96537.72;;;17.05;100.00
70411;BME280;57832;46.038;11.398;2023-04-23T05:40:04;96541.34;;;16.63;100.00
70411;BME280;57832;46.038;11.398;2023-04-23T05:42:31;96541.03;;;16.83;100.00
70411;BME280;57832;46.038;11.398;2023-04-23T05:44:57;96543.41;;;16.66;100.00
70411;BME280;57832;46.038;11.398;2023-04-23T05:47:22;96545.78;;;17.28;100.00
70411;BME280;57832;46.038;11.398;2023-04-23T05:49:48;96544.59;;;17.07;100.00
70411;BME280;57832;46.038;11.398;2023-04-23T05:52:13;96543.25;;;17.87;100.00
70411;BME280;57832;46.038;11.398;2023-04-23T05:54:40;96534.53;;;18.24;100.00
70411;BME280;57832;46.038;11.398;2023-04-23T05:57:06;96535.63;;;18.09;100.00
70411;BME280;57832;46.038;11.398;2023-04-23T05:59:32;96530.00;;;18.24;100.00
70411;BME280;57832;46.038;11.398;2023-04-23T06:01:58;96540.38;;;18.34;100.00
70411;BME280;57832;46.038;11.398;2023-04-23T06:04:24;96536.38;;;19.00;100.00
70411;BME280;57832;46.038;11.398;2023-04-23T06:06:49;96537.53;;;19.16;100.00
70411;BME280;57832;46.038;11.398;2023-04-23T06:09:15;96534.56;;;18.55;100.00
70411;BME280;57832;46.038;11.398;2023-04-23T06:11:40;96533.22;;;18.66;100.00
70411;BME280;57832;46.038;11.398;2023-04-23T06:14:06;96532.88;;;18.36;100.00
70411;BME280;57832;46.038;11.398;2023-04-23T06:16:31;96527.84;;;18.58;100.00
70411;BME280;57832;46.038;11.398;2023-04-23T06:18:57;96523.34;;;18.58;100.00
70411;BME280;57832;46.038;11.398;2023-04-23T06:21:23;96519.25;;;18.52;100.00
70411;BME280;57832;46.038;11.398;2023-04-23T06:23:48;96522.13;;;18.64;100.00
70411;BME280;57832;46.038;11.398;2023-04-23T06:26:14;96518.28;;;18.48;100.00
70411;BME280;57832;46.038;11.398;2023-04-23T06:28:44;96517.22;;;19.12;100.00
70411;BME280;57832;46.038;11.398;2023-04-23T06:31:10;96512.00;;;18.75;100.00
70411;BME280;57832;46.038;11.398;2023-04-23T06:33:36;96515.72;;;18.65;100.00
70411;BME280;57832;46.038;11.398;2023-04-23T06:36:05;96512.16;;;18.93;100.00
70411;BME280;57832;46.038;11.398;2023-04-23T06:38:32;96517.44;;;19.33;100.00
70411;BME280;57832;46.038;11.398;2023-04-23T06:40:58;96515.69;;;19.28;100.00
70411;BME280;57832;46.038;11.398;2023-04-23T06:43:23;96515.78;;;19.05;100.00
70411;BME280;57832;46.038;11.398;2023-04-23T06:45:49;96519.16;;;19.29;100.00
70411;BME280;57832;46.038;11.398;2023-04-23T06:48:14;96511.69;;;20.53;100.00
70411;BME280;57832;46.038;11.398;2023-04-23T06:50:41;96510.44;;;19.54;100.00
70411;BME280;57832;46.038;11.398;2023-04-23T06:53:06;96511.44;;;19.18;100.00
70411;BME280;57832;46.038;11.398;2023-04-23T06:55:32;96515.41;;;19.38;100.00
70411;BME280;57832;46.038;11.398;2023-04-23T06:57:57;96508.28;;;20.27;100.00
70411;BME280;57832;46.038;11.398;2023-04-23T07:00:24;96504.97;;;20.38;100.00
70411;BME280;57832;46.038;11.398;2023-04-23T07:02:49;96506.03;;;24.36;100.00
70411;BME280;57832;46.038;11.398;2023-04-23T07:05:18;96505.47;;;21.86;100.00
70411;BME280;57832;46.038;11.398;2023-04-23T07:07:44;96504.16;;;21.42;100.00
70411;BME280;57832;46.038;11.398;2023-04-23T07:10:10;96509.94;;;20.58;100.00
70411;BME280;57832;46.038;11.398;2023-04-23T07:12:37;96492.06;;;22.62;100.00
70411;BME280;57832;46.038;11.398;2023-04-23T07:15:04;96497.72;;;24.25;100.00
70411;BME280;57832;46.038;11.398;2023-04-23T07:17:30;96489.81;;;24.16;100.00
70411;BME280;57832;46.038;11.398;2023-04-23T07:19:56;96491.38;;;21.56;100.00
70411;BME280;57832;46.038;11.398;2023-04-23T07:22:23;96489.84;;;26.58;91.24
70411;BME280;57832;46.038;11.398;2023-04-23T07:24:48;96490.25;;;25.98;79.16
70411;BME280;57832;46.038;11.398;2023-04-23T07:27:14;96485.63;;;22.63;100.00
70411;BME280;57832;46.038;11.398;2023-04-23T07:29:39;96488.00;;;21.89;100.00
70411;BME280;57832;46.038;11.398;2023-04-23T07:32:05;96466.31;;;22.58;100.00
70411;BME280;57832;46.038;11.398;2023-04-23T07:34:30;96482.22;;;22.42;100.00
70411;BME280;57832;46.038;11.398;2023-04-23T07:36:56;96475.22;;;22.49;100.00
70411;BME280;57832;46.038;11.398;2023-04-23T07:39:22;96474.63;;;24.20;100.00
70411;BME280;57832;46.038;11.398;2023-04-23T07:41:47;96470.53;;;25.19;96.95
70411;BME280;57832;46.038;11.398;2023-04-23T07:44:13;96474.97;;;23.91;100.00
70411;BME280;57832;46.038;11.398;2023-04-23T07:46:38;96474.94;;;23.00;100.00
70411;BME280;57832;46.038;11.398;2023-04-23T07:49:04;96477.59;;;22.76;100.00
70411;BME280;57832;46.038;11.398;2023-04-23T07:51:29;96476.88;;;22.42;100.00
70411;BME280;57832;46.038;11.398;2023-04-23T07:53:56;96471.25;;;22.22;100.00
70411;BME280;57832;46.038;11.398;2023-04-23T07:56:22;96469.84;;;22.37;100.00
70411;BME280;57832;46.038;11.398;2023-04-23T07:58:49;96467.91;;;22.25;100.00
70411;BME280;57832;46.038;11.398;2023-04-23T08:01:15;96456.63;;;22.53;100.00
70411;BME280;57832;46.038;11.398;2023-04-23T08:03:41;96464.69;;;23.40;100.00
70411;BME280;57832;46.038;11.398;2023-04-23T08:06:08;96463.38;;;24.59;99.00
70411;BME280;57832;46.038;11.398;2023-04-23T08:08:34;96458.84;;;31.65;50.00
70411;BME280;57832;46.038;11.398;2023-04-23T08:11:00;96460.19;;;32.70;41.35
70411;BME280;57832;46.038;11.398;2023-04-23T08:13:25;96455.56;;;28.16;51.90
70411;BME280;57832;46.038;11.398;2023-04-23T08:15:51;96452.75;;;30.46;49.93
70411;BME280;57832;46.038;11.398;2023-04-23T08:18:16;96446.00;;;27.31;62.01
70411;BME280;57832;46.038;11.398;2023-04-23T08:20:42;96445.13;;;29.63;47.30
70411;BME280;57832;46.038;11.398;2023-04-23T08:23:08;96449.97;;;27.10;66.24
70411;BME280;57832;46.038;11.398;2023-04-23T08:25:33;96454.63;;;26.44;72.40
70411;BME280;57832;46.038;11.398;2023-04-23T08:27:59;96445.25;;;25.36;86.30
70411;BME280;57832;46.038;11.398;2023-04-23T08:30:24;96448.06;;;24.92;98.95
70411;BME280;57832;46.038;11.398;2023-04-23T08:32:51;96442.84;;;25.15;89.41
70411;BME280;57832;46.038;11.398;2023-04-23T08:35:19;96438.00;;;25.95;85.18
70411;BME280;57832;46.038;11.398;2023-04-23T08:37:45;96434.97;;;28.38;58.23
70411;BME280;57832;46.038;11.398;2023-04-23T08:40:11;96439.97;;;25.24;88.25
70411;BME280;57832;46.038;11.398;2023-04-23T08:42:56;96435.19;;;27.54;69.61
70411;BME280;57832;46.038;11.398;2023-04-23T08:45:23;96429.50;;;32.27;43.42
70411;BME280;57832;46.038;11.398;2023-04-23T08:47:49;96433.41;;;30.51;43.79
70411;BME280;57832;46.038;11.398;2023-04-23T08:50:17;96432.63;;;31.19;45.71
70411;BME280;57832;46.038;11.398;2023-04-23T08:52:52;96426.53;;;32.04;43.68
70411;BME280;57832;46.038;11.398;2023-04-23T08:55:20;96412.44;;;39.31;29.24
70411;BME280;57832;46.038;11.398;2023-04-23T08:57:46;96417.19;;;30.55;39.63
70411;BME280;57832;46.038;11.398;2023-04-23T09:00:16;96417.56;;;30.96;44.39
70411;BME280;57832;46.038;11.398;2023-04-23T09:02:45;96411.50;;;33.39;38.41
70411;BME280;57832;46.038;11.398;2023-04-23T09:05:12;96405.78;;;31.72;39.53
70411;BME280;57832;46.038;11.398;2023-04-23T09:07:39;96392.28;;;34.15;33.86
70411;BME280;57832;46.038;11.398;2023-04-23T09:10:06;96405.75;;;32.91;33.52
70411;BME280;57832;46.038;11.398;2023-04-23T09:12:35;96404.63;;;28.48;41.84
70411;BME280;57832;46.038;11.398;2023-04-23T09:15:02;96406.16;;;28.46;51.41
70411;BME280;57832;46.038;11.398;2023-04-23T09:17:35;96390.19;;;27.92;60.76
70411;BME280;57832;46.038;11.398;2023-04-23T09:20:02;96382.38;;;30.17;47.76
70411;BME280;57832;46.038;11.398;2023-04-23T09:22:47;96385.16;;;27.53;57.30
70411;BME280;57832;46.038;11.398;2023-04-23T09:25:17;96378.31;;;28.34;55.02
70411;BME280;57832;46.038;11.398;2023-04-23T09:27:44;96383.91;;;28.15;57.35
70411;BME280;57832;46.038;11.398;2023-04-23T09:30:10;96376.72;;;29.41;50.03
70411;BME280;57832;46.038;11.398;2023-04-23T09:32:41;96375.56;;;27.25;58.02
70411;BME280;57832;46.038;11.398;2023-04-23T09:35:12;96381.88;;;26.79;66.44
70411;BME280;57832;46.038;11.398;2023-04-23T09:37:45;96370.63;;;26.50;71.83
70411;BME280;57832;46.038;11.398;2023-04-23T09:40:14;96373.63;;;26.45;74.89
70411;BME280;57832;46.038;11.398;2023-04-23T09:42:40;96367.16;;;27.30;69.63
70411;BME280;57832;46.038;11.398;2023-04-23T09:45:11;96375.06;;;28.63;63.12
70411;BME280;57832;46.038;11.398;2023-04-23T09:47:39;96373.50;;;30.60;45.09
70411;BME280;57832;46.038;11.398;2023-04-23T09:50:06;96363.84;;;30.62;46.79
70411;BME280;57832;46.038;11.398;2023-04-23T09:52:37;96363.88;;;30.55;46.98
70411;BME280;57832;46.038;11.398;2023-04-23T09:55:03;96352.59;;;32.48;39.35
70411;BME280;57832;46.038;11.398;2023-04-23T09:57:34;96349.00;;;32.10;43.58
70411;BME280;57832;46.038;11.398;2023-04-23T10:00:14;96352.63;;;32.45;39.44
70411;BME280;57832;46.038;11.398;2023-04-23T10:02:47;96344.63;;;38.87;30.58
70411;BME280;57832;46.038;11.398;2023-04-23T10:05:18;96334.91;;;39.40;29.54
70411;BME280;57832;46.038;11.398;2023-04-23T10:07:44;96338.97;;;31.22;38.26
70411;BME280;57832;46.038;11.398;2023-04-23T10:10:17;96341.44;;;32.39;38.75
70411;BME280;57832;46.038;11.398;2023-04-23T10:12:43;96332.06;;;31.10;40.12
70411;BME280;57832;46.038;11.398;2023-04-23T10:15:10;96333.94;;;31.20;39.32
70411;BME280;57832;46.038;11.398;2023-04-23T10:17:36;96327.66;;;29.25;43.83
70411;BME280;57832;46.038;11.398;2023-04-23T10:20:03;96329.44;;;30.74;44.38
70411;BME280;57832;46.038;11.398;2023-04-23T10:22:29;96315.03;;;39.99;28.61
70411;BME280;57832;46.038;11.398;2023-04-23T10:24:56;96322.34;;;39.83;27.24
70411;BME280;57832;46.038;11.398;2023-04-23T10:27:30;96328.03;;;36.22;31.25
70411;BME280;57832;46.038;11.398;2023-04-23T10:30:00;96323.34;;;37.83;28.75
70411;BME280;57832;46.038;11.398;2023-04-23T10:32:26;96323.16;;;31.06;34.16
70411;BME280;57832;46.038;11.398;2023-04-23T10:34:52;96324.63;;;29.37;41.90
70411;BME280;57832;46.038;11.398;2023-04-23T10:37:18;96325.13;;;28.31;46.23
70411;BME280;57832;46.038;11.398;2023-04-23T10:39:49;96327.50;;;27.95;51.28
70411;BME280;57832;46.038;11.398;2023-04-23T10:42:18;96327.75;;;27.15;53.41
70411;BME280;57832;46.038;11.398;2023-04-23T10:44:44;96311.97;;;35.38;35.54
70411;BME280;57832;46.038;11.398;2023-04-23T10:47:16;96309.66;;;30.88;37.54
70411;BME280;57832;46.038;11.398;2023-04-23T10:49:43;96308.59;;;30.42;40.47
70411;BME280;57832;46.038;11.398;2023-04-23T10:52:12;96305.78;;;33.48;33.92
70411;BME280;57832;46.038;11.398;2023-04-23T10:54:48;96313.41;;;29.28;43.19
70411;BME280;57832;46.038;11.398;2023-04-23T10:57:13;96315.00;;;28.14;50.88
70411;BME280;57832;46.038;11.398;2023-04-23T10:59:49;96310.53;;;28.36;51.50
70411;BME280;57832;46.038;11.398;2023-04-23T11:02:16;96303.16;;;28.85;47.38
70411;BME280;57832;46.038;11.398;2023-04-23T11:04:44;96301.94;;;29.71;42.61
70411;BME280;57832;46.038;11.398;2023-04-23T11:07:12;96300.88;;;27.18;51.56
70411;BME280;57832;46.038;11.398;2023-04-23T11:09:42;96303.31;;;27.61;51.98
70411;BME280;57832;46.038;11.398;2023-04-23T11:12:33;96301.09;;;27.36;50.88
70411;BME280;57832;46.038;11.398;2023-04-23T11:14:58;96300.06;;;28.27;49.64
70411;BME280;57832;46.038;11.398;2023-04-23T11:20:10;96277.00;;;38.14;27.96
70411;BME280;57832;46.038;11.398;2023-04-23T11:22:45;96288.06;;;33.01;34.20
70411;BME280;57832;46.038;11.398;2023-04-23T11:25:26;96286.50;;;32.28;36.50
70411;BME280;57832;46.038;11.398;2023-04-23T11:27:54;96276.44;;;32.28;33.10
70411;BME280;57832;46.038;11.398;2023-04-23T11:30:22;96268.22;;;38.19;28.11
70411;BME280;57832;46.038;11.398;2023-04-23T11:32:49;96262.38;;;31.21;34.56
70411;BME280;57832;46.038;11.398;2023-04-23T11:35:17;96268.84;;;32.50;33.85
70411;BME280;57832;46.038;11.398;2023-04-23T11:37:43;96270.69;;;30.63;37.71
70411;BME280;57832;46.038;11.398;2023-04-23T11:40:13;96272.75;;;28.92;41.40
70411;BME280;57832;46.038;11.398;2023-04-23T11:42:48;96266.19;;;28.93;42.09
70411;BME280;57832;46.038;11.398;2023-04-23T11:45:24;96259.38;;;27.98;46.94
70411;BME280;57832;46.038;11.398;2023-04-23T11:47:52;96256.75;;;28.02;48.43
70411;BME280;57832;46.038;11.398;2023-04-23T11:50:23;96247.13;;;28.64;44.57
70411;BME280;57832;46.038;11.398;2023-04-23T11:52:50;96248.03;;;28.90;46.89
70411;BME280;57832;46.038;11.398;2023-04-23T11:55:18;96235.69;;;37.86;30.15
70411;BME280;57832;46.038;11.398;2023-04-23T11:57:47;96236.88;;;37.46;28.87
70411;BME280;57832;46.038;11.398;2023-04-23T12:00:17;96229.91;;;39.80;25.38
70411;BME280;57832;46.038;11.398;2023-04-23T12:05:26;96219.06;;;35.98;27.44
70411;BME280;57832;46.038;11.398;2023-04-23T12:07:53;96217.66;;;38.46;26.76
70411;BME280;57832;46.038;11.398;2023-04-23T12:10:20;96205.97;;;41.44;23.84
70411;BME280;57832;46.038;11.398;2023-04-23T12:12:51;96197.41;;;35.05;29.03
70411;BME280;57832;46.038;11.398;2023-04-23T12:15:19;96196.97;;;38.67;25.15
70411;BME280;57832;46.038;11.398;2023-04-23T12:17:50;96199.38;;;39.59;24.62
70411;BME280;57832;46.038;11.398;2023-04-23T12:20:20;96198.63;;;34.20;30.30
70411;BME280;57832;46.038;11.398;2023-04-23T12:22:46;96194.22;;;31.90;34.42
70411;BME280;57832;46.038;11.398;2023-04-23T12:25:14;96201.44;;;30.80;36.54
70411;BME280;57832;46.038;11.398;2023-04-23T12:27:44;96203.91;;;29.59;39.59
70411;BME280;57832;46.038;11.398;2023-04-23T12:30:11;96191.84;;;29.17;36.67
70411;BME280;57832;46.038;11.398;2023-04-23T12:32:40;96193.09;;;30.02;33.31
70411;BME280;57832;46.038;11.398;2023-04-23T12:35:05;96186.13;;;29.51;34.62
70411;BME280;57832;46.038;11.398;2023-04-23T12:37:35;96184.53;;;30.37;34.02
70411;BME280;57832;46.038;11.398;2023-04-23T12:40:02;96188.00;;;29.25;35.96
70411;BME280;57832;46.038;11.398;2023-04-23T12:42:32;96186.41;;;29.02;35.73
70411;BME280;57832;46.038;11.398;2023-04-23T12:45:05;96185.22;;;28.96;35.24
70411;BME280;57832;46.038;11.398;2023-04-23T12:47:31;96178.03;;;29.76;35.84